sensor_id;sensor_type;location;lat;lon;timestamp;temperature;humidity
8979;DHT22;4524;51.364;5.448;2023-07-08T00:01:12;20.30;88.60
8979;DHT22;4524;51.364;5.448;2023-07-08T00:03:40;20.20;88.80
8979;DHT22;4524;51.364;5.448;2023-07-08T00:06:13;20.20;88.90
8979;DHT22;4524;51.364;5.448;2023-07-08T00:08:42;20.20;88.70
8979;DHT22;4524;51.364;5.448;2023-07-08T00:11:11;20.20;88.90
8979;DHT22;4524;51.364;5.448;2023-07-08T00:13:41;20.20;89.00
8979;DHT22;4524;51.364;5.448;2023-07-08T00:16:10;20.10;89.10
8979;DHT22;4524;51.364;5.448;2023-07-08T00:18:39;20.00;89.10
8979;DHT22;4524;51.364;5.448;2023-07-08T00:21:09;20.00;89.90
8979;DHT22;4524;51.364;5.448;2023-07-08T00:23:44;19.90;89.80
8979;DHT22;4524;51.364;5.448;2023-07-08T00:26:17;19.90;90.10
8979;DHT22;4524;51.364;5.448;2023-07-08T00:28:47;19.90;92.90
8979;DHT22;4524;51.364;5.448;2023-07-08T00:31:15;19.80;90.20
8979;DHT22;4524;51.364;5.448;2023-07-08T00:33:43;19.80;90.20
8979;DHT22;4524;51.364;5.448;2023-07-08T00:36:13;19.80;90.30
8979;DHT22;4524;51.364;5.448;2023-07-08T00:38:42;19.70;90.40
8979;DHT22;4524;51.364;5.448;2023-07-08T00:41:16;19.70;90.40
8979;DHT22;4524;51.364;5.448;2023-07-08T00:43:51;19.60;90.70
8979;DHT22;4524;51.364;5.448;2023-07-08T00:46:34;19.60;90.80
8979;DHT22;4524;51.364;5.448;2023-07-08T00:49:17;19.50;90.60
8979;DHT22;4524;51.364;5.448;2023-07-08T00:51:47;19.50;93.40
8979;DHT22;4524;51.364;5.448;2023-07-08T00:54:18;19.50;93.60
8979;DHT22;4524;51.364;5.448;2023-07-08T00:56:49;19.50;90.90
8979;DHT22;4524;51.364;5.448;2023-07-08T00:59:25;19.40;91.00
8979;DHT22;4524;51.364;5.448;2023-07-08T01:01:56;19.40;91.00
8979;DHT22;4524;51.364;5.448;2023-07-08T01:04:30;19.40;91.20
8979;DHT22;4524;51.364;5.448;2023-07-08T01:07:01;19.30;91.30
8979;DHT22;4524;51.364;5.448;2023-07-08T01:09:44;19.30;91.50
8979;DHT22;4524;51.364;5.448;2023-07-08T01:12:18;19.30;91.20
8979;DHT22;4524;51.364;5.448;2023-07-08T01:14:48;19.30;91.40
8979;DHT22;4524;51.364;5.448;2023-07-08T01:17:20;19.30;91.50
8979;DHT22;4524;51.364;5.448;2023-07-08T01:19:50;19.20;91.60
8979;DHT22;4524;51.364;5.448;2023-07-08T01:22:19;19.10;91.90
8979;DHT22;4524;51.364;5.448;2023-07-08T01:24:47;19.10;91.80
8979;DHT22;4524;51.364;5.448;2023-07-08T01:27:18;19.10;92.00
8979;DHT22;4524;51.364;5.448;2023-07-08T01:29:46;19.10;92.00
8979;DHT22;4524;51.364;5.448;2023-07-08T01:32:15;19.10;92.00
8979;DHT22;4524;51.364;5.448;2023-07-08T01:34:46;19.10;92.00
8979;DHT22;4524;51.364;5.448;2023-07-08T01:37:49;19.00;92.10
8979;DHT22;4524;51.364;5.448;2023-07-08T01:40:25;19.10;92.00
8979;DHT22;4524;51.364;5.448;2023-07-08T01:42:54;19.00;92.10
8979;DHT22;4524;51.364;5.448;2023-07-08T01:45:24;19.00;92.20
8979;DHT22;4524;51.364;5.448;2023-07-08T01:47:56;19.00;92.20
8979;DHT22;4524;51.364;5.448;2023-07-08T01:50:26;19.00;92.10
8979;DHT22;4524;51.364;5.448;2023-07-08T01:52:58;19.00;92.20
8979;DHT22;4524;51.364;5.448;2023-07-08T01:55:27;19.10;92.10
8979;DHT22;4524;51.364;5.448;2023-07-08T01:57:57;19.10;92.00
8979;DHT22;4524;51.364;5.448;2023-07-08T02:00:25;19.00;92.10
8979;DHT22;4524;51.364;5.448;2023-07-08T02:02:53;19.00;92.20
8979;DHT22;4524;51.364;5.448;2023-07-08T02:05:22;19.10;92.10
8979;DHT22;4524;51.364;5.448;2023-07-08T02:07:51;19.00;92.10
8979;DHT22;4524;51.364;5.448;2023-07-08T02:10:20;19.00;92.10
8979;DHT22;4524;51.364;5.448;2023-07-08T02:13:08;19.10;92.10
8979;DHT22;4524;51.364;5.448;2023-07-08T02:15:36;19.00;92.20
8979;DHT22;4524;51.364;5.448;2023-07-08T02:18:04;19.10;92.00
8979;DHT22;4524;51.364;5.448;2023-07-08T02:20:32;19.10;92.00
8979;DHT22;4524;51.364;5.448;2023-07-08T02:23:00;19.00;92.30
8979;DHT22;4524;51.364;5.448;2023-07-08T02:25:29;19.00;92.20
8979;DHT22;4524;51.364;5.448;2023-07-08T02:27:57;19.00;92.30
8979;DHT22;4524;51.364;5.448;2023-07-08T02:30:26;19.00;92.20
8979;DHT22;4524;51.364;5.448;2023-07-08T02:32:54;19.00;92.10
8979;DHT22;4524;51.364;5.448;2023-07-08T02:35:25;18.90;92.20
8979;DHT22;4524;51.364;5.448;2023-07-08T02:37:54;18.90;92.40
8979;DHT22;4524;51.364;5.448;2023-07-08T02:40:23;18.90;92.50
8979;DHT22;4524;51.364;5.448;2023-07-08T02:42:52;18.90;92.30
8979;DHT22;4524;51.364;5.448;2023-07-08T02:45:21;18.90;92.30
8979;DHT22;4524;51.364;5.448;2023-07-08T02:47:49;18.90;92.30
8979;DHT22;4524;51.364;5.448;2023-07-08T02:50:17;18.80;92.40
8979;DHT22;4524;51.364;5.448;2023-07-08T02:52:45;18.80;92.40
8979;DHT22;4524;51.364;5.448;2023-07-08T02:55:14;18.80;92.50
8979;DHT22;4524;51.364;5.448;2023-07-08T02:57:42;18.80;92.50
8979;DHT22;4524;51.364;5.448;2023-07-08T03:00:12;18.80;92.50
8979;DHT22;4524;51.364;5.448;2023-07-08T03:02:41;18.70;92.70
8979;DHT22;4524;51.364;5.448;2023-07-08T03:05:09;18.70;92.70
8979;DHT22;4524;51.364;5.448;2023-07-08T03:07:37;18.70;92.80
8979;DHT22;4524;51.364;5.448;2023-07-08T03:10:06;18.60;94.70
8979;DHT22;4524;51.364;5.448;2023-07-08T03:12:34;18.60;93.10
8979;DHT22;4524;51.364;5.448;2023-07-08T03:15:02;18.50;93.20
8979;DHT22;4524;51.364;5.448;2023-07-08T03:17:32;18.50;93.50
8979;DHT22;4524;51.364;5.448;2023-07-08T03:20:00;18.30;93.60
8979;DHT22;4524;51.364;5.448;2023-07-08T03:22:31;18.30;93.60
8979;DHT22;4524;51.364;5.448;2023-07-08T03:24:59;18.30;93.90
8979;DHT22;4524;51.364;5.448;2023-07-08T03:27:29;18.30;94.00
8979;DHT22;4524;51.364;5.448;2023-07-08T03:29:57;18.20;93.80
8979;DHT22;4524;51.364;5.448;2023-07-08T03:32:25;18.10;94.20
8979;DHT22;4524;51.364;5.448;2023-07-08T03:34:55;18.10;94.50
8979;DHT22;4524;51.364;5.448;2023-07-08T03:37:23;18.00;94.70
8979;DHT22;4524;51.364;5.448;2023-07-08T03:39:51;17.90;94.80
8979;DHT22;4524;51.364;5.448;2023-07-08T03:42:19;17.90;94.80
8979;DHT22;4524;51.364;5.448;2023-07-08T03:44:47;18.00;94.80
8979;DHT22;4524;51.364;5.448;2023-07-08T03:47:16;18.10;95.00
8979;DHT22;4524;51.364;5.448;2023-07-08T03:49:44;18.00;94.80
8979;DHT22;4524;51.364;5.448;2023-07-08T03:52:15;18.00;95.10
8979;DHT22;4524;51.364;5.448;2023-07-08T03:54:45;18.00;94.90
8979;DHT22;4524;51.364;5.448;2023-07-08T03:57:13;18.10;94.90
8979;DHT22;4524;51.364;5.448;2023-07-08T03:59:44;18.10;94.80
8979;DHT22;4524;51.364;5.448;2023-07-08T04:02:12;18.30;94.70
8979;DHT22;4524;51.364;5.448;2023-07-08T04:04:40;18.30;94.70
8979;DHT22;4524;51.364;5.448;2023-07-08T04:07:09;18.30;94.70
8979;DHT22;4524;51.364;5.448;2023-07-08T04:09:40;18.40;94.80
8979;DHT22;4524;51.364;5.448;2023-07-08T04:12:10;18.40;94.70
8979;DHT22;4524;51.364;5.448;2023-07-08T04:14:38;18.30;95.00
8979;DHT22;4524;51.364;5.448;2023-07-08T04:17:10;18.30;95.10
8979;DHT22;4524;51.364;5.448;2023-07-08T04:19:38;18.40;95.00
8979;DHT22;4524;51.364;5.448;2023-07-08T04:22:11;18.40;95.00
8979;DHT22;4524;51.364;5.448;2023-07-08T04:24:40;18.40;95.10
8979;DHT22;4524;51.364;5.448;2023-07-08T04:27:12;18.30;95.20
8979;DHT22;4524;51.364;5.448;2023-07-08T04:29:41;18.30;95.40
8979;DHT22;4524;51.364;5.448;2023-07-08T04:32:09;18.40;95.50
8979;DHT22;4524;51.364;5.448;2023-07-08T04:34:37;18.50;95.50
8979;DHT22;4524;51.364;5.448;2023-07-08T04:37:05;18.50;95.40
8979;DHT22;4524;51.364;5.448;2023-07-08T04:39:34;18.40;95.40
8979;DHT22;4524;51.364;5.448;2023-07-08T04:42:03;18.40;98.20
8979;DHT22;4524;51.364;5.448;2023-07-08T04:44:31;18.60;95.50
8979;DHT22;4524;51.364;5.448;2023-07-08T04:47:00;18.60;95.60
8979;DHT22;4524;51.364;5.448;2023-07-08T04:49:28;18.60;95.50
8979;DHT22;4524;51.364;5.448;2023-07-08T04:51:58;18.70;95.30
8979;DHT22;4524;51.364;5.448;2023-07-08T04:54:28;18.90;95.30
8979;DHT22;4524;51.364;5.448;2023-07-08T04:56:56;19.00;95.50
8979;DHT22;4524;51.364;5.448;2023-07-08T04:59:26;19.00;98.10
8979;DHT22;4524;51.364;5.448;2023-07-08T05:01:54;19.10;95.50
8979;DHT22;4524;51.364;5.448;2023-07-08T05:04:22;19.10;95.40
8979;DHT22;4524;51.364;5.448;2023-07-08T05:06:50;19.10;95.50
8979;DHT22;4524;51.364;5.448;2023-07-08T05:09:18;19.20;95.20
8979;DHT22;4524;51.364;5.448;2023-07-08T05:11:49;19.30;95.10
8979;DHT22;4524;51.364;5.448;2023-07-08T05:14:17;19.40;95.10
8979;DHT22;4524;51.364;5.448;2023-07-08T05:16:46;19.70;94.90
8979;DHT22;4524;51.364;5.448;2023-07-08T05:19:14;20.90;94.40
8979;DHT22;4524;51.364;5.448;2023-07-08T05:21:42;21.00;93.30
8979;DHT22;4524;51.364;5.448;2023-07-08T05:24:12;20.70;93.50
8979;DHT22;4524;51.364;5.448;2023-07-08T05:26:40;20.60;93.50
8979;DHT22;4524;51.364;5.448;2023-07-08T05:29:08;20.60;93.70
8979;DHT22;4524;51.364;5.448;2023-07-08T05:31:36;20.40;93.70
8979;DHT22;4524;51.364;5.448;2023-07-08T05:34:17;20.40;93.60
8979;DHT22;4524;51.364;5.448;2023-07-08T05:37:04;20.30;93.70
8979;DHT22;4524;51.364;5.448;2023-07-08T05:39:33;20.30;94.10
8979;DHT22;4524;51.364;5.448;2023-07-08T05:42:01;20.30;94.00
8979;DHT22;4524;51.364;5.448;2023-07-08T05:44:29;20.40;94.00
8979;DHT22;4524;51.364;5.448;2023-07-08T05:46:57;20.40;93.90
8979;DHT22;4524;51.364;5.448;2023-07-08T05:49:27;20.40;93.90
8979;DHT22;4524;51.364;5.448;2023-07-08T05:51:55;20.50;93.90
8979;DHT22;4524;51.364;5.448;2023-07-08T05:54:23;20.60;93.80
8979;DHT22;4524;51.364;5.448;2023-07-08T05:56:53;20.70;93.70
8979;DHT22;4524;51.364;5.448;2023-07-08T05:59:21;20.70;93.70
8979;DHT22;4524;51.364;5.448;2023-07-08T06:01:49;20.80;93.50
8979;DHT22;4524;51.364;5.448;2023-07-08T06:04:17;20.80;93.50
8979;DHT22;4524;51.364;5.448;2023-07-08T06:06:46;20.90;93.20
8979;DHT22;4524;51.364;5.448;2023-07-08T06:09:14;20.90;93.20
8979;DHT22;4524;51.364;5.448;2023-07-08T06:11:42;21.00;93.30
8979;DHT22;4524;51.364;5.448;2023-07-08T06:14:11;21.10;93.10
8979;DHT22;4524;51.364;5.448;2023-07-08T06:16:39;21.10;92.90
8979;DHT22;4524;51.364;5.448;2023-07-08T06:19:09;21.20;92.90
8979;DHT22;4524;51.364;5.448;2023-07-08T06:21:38;21.20;95.50
8979;DHT22;4524;51.364;5.448;2023-07-08T06:24:27;21.30;92.60
8979;DHT22;4524;51.364;5.448;2023-07-08T06:27:14;21.40;92.60
8979;DHT22;4524;51.364;5.448;2023-07-08T06:29:42;21.40;92.50
8979;DHT22;4524;51.364;5.448;2023-07-08T06:32:10;21.50;95.40
8979;DHT22;4524;51.364;5.448;2023-07-08T06:34:38;21.70;92.60
8979;DHT22;4524;51.364;5.448;2023-07-08T06:37:06;21.70;92.40
8979;DHT22;4524;51.364;5.448;2023-07-08T06:39:35;21.70;92.00
8979;DHT22;4524;51.364;5.448;2023-07-08T06:42:07;21.80;92.00
8979;DHT22;4524;51.364;5.448;2023-07-08T06:44:40;21.90;91.80
8979;DHT22;4524;51.364;5.448;2023-07-08T06:47:12;22.00;91.80
8979;DHT22;4524;51.364;5.448;2023-07-08T06:49:40;22.00;91.70
8979;DHT22;4524;51.364;5.448;2023-07-08T06:52:08;22.10;91.90
8979;DHT22;4524;51.364;5.448;2023-07-08T06:54:38;22.20;91.40
8979;DHT22;4524;51.364;5.448;2023-07-08T06:57:06;22.20;91.30
8979;DHT22;4524;51.364;5.448;2023-07-08T06:59:35;22.20;91.10
8979;DHT22;4524;51.364;5.448;2023-07-08T07:02:03;22.30;91.20
8979;DHT22;4524;51.364;5.448;2023-07-08T07:04:31;22.40;91.40
8979;DHT22;4524;51.364;5.448;2023-07-08T07:06:59;22.50;91.10
8979;DHT22;4524;51.364;5.448;2023-07-08T07:09:27;22.50;91.20
8979;DHT22;4524;51.364;5.448;2023-07-08T07:11:56;22.70;91.10
8979;DHT22;4524;51.364;5.448;2023-07-08T07:14:24;22.70;90.70
8979;DHT22;4524;51.364;5.448;2023-07-08T07:16:55;22.70;91.00
8979;DHT22;4524;51.364;5.448;2023-07-08T07:19:35;22.80;90.80
8979;DHT22;4524;51.364;5.448;2023-07-08T07:22:03;22.90;90.70
8979;DHT22;4524;51.364;5.448;2023-07-08T07:24:52;23.00;90.70
8979;DHT22;4524;51.364;5.448;2023-07-08T07:27:21;23.10;90.80
8979;DHT22;4524;51.364;5.448;2023-07-08T07:29:50;23.10;90.60
8979;DHT22;4524;51.364;5.448;2023-07-08T07:32:22;23.20;90.30
8979;DHT22;4524;51.364;5.448;2023-07-08T07:34:51;23.20;90.20
8979;DHT22;4524;51.364;5.448;2023-07-08T07:37:21;23.30;90.10
8979;DHT22;4524;51.364;5.448;2023-07-08T07:40:29;23.30;90.10
8979;DHT22;4524;51.364;5.448;2023-07-08T07:42:58;23.40;89.60
8979;DHT22;4524;51.364;5.448;2023-07-08T07:45:26;23.40;92.50
8979;DHT22;4524;51.364;5.448;2023-07-08T07:47:55;23.60;92.60
8979;DHT22;4524;51.364;5.448;2023-07-08T07:50:23;23.60;89.80
8979;DHT22;4524;51.364;5.448;2023-07-08T07:52:51;23.80;89.30
8979;DHT22;4524;51.364;5.448;2023-07-08T07:55:19;23.90;89.60
8979;DHT22;4524;51.364;5.448;2023-07-08T07:57:47;23.90;89.10
8979;DHT22;4524;51.364;5.448;2023-07-08T08:00:17;24.00;88.80
8979;DHT22;4524;51.364;5.448;2023-07-08T08:02:45;24.20;88.50
8979;DHT22;4524;51.364;5.448;2023-07-08T08:05:13;24.20;88.30
8979;DHT22;4524;51.364;5.448;2023-07-08T08:07:41;24.30;88.00
8979;DHT22;4524;51.364;5.448;2023-07-08T08:10:09;24.40;88.70
8979;DHT22;4524;51.364;5.448;2023-07-08T08:12:37;24.50;88.10
8979;DHT22;4524;51.364;5.448;2023-07-08T08:15:21;24.50;87.90
8979;DHT22;4524;51.364;5.448;2023-07-08T08:17:50;24.60;87.00
8979;DHT22;4524;51.364;5.448;2023-07-08T08:20:20;24.70;91.40
8979;DHT22;4524;51.364;5.448;2023-07-08T08:22:49;24.80;87.30
8979;DHT22;4524;51.364;5.448;2023-07-08T08:25:19;24.80;87.40
8979;DHT22;4524;51.364;5.448;2023-07-08T08:27:47;24.90;87.30
8979;DHT22;4524;51.364;5.448;2023-07-08T08:30:15;24.90;85.60
8979;DHT22;4524;51.364;5.448;2023-07-08T08:32:45;25.00;85.80
8979;DHT22;4524;51.364;5.448;2023-07-08T08:35:13;25.20;86.10
8979;DHT22;4524;51.364;5.448;2023-07-08T08:37:41;25.20;86.30
8979;DHT22;4524;51.364;5.448;2023-07-08T08:40:13;25.30;85.80
8979;DHT22;4524;51.364;5.448;2023-07-08T08:42:50;25.40;85.30
8979;DHT22;4524;51.364;5.448;2023-07-08T08:45:43;25.50;86.60
8979;DHT22;4524;51.364;5.448;2023-07-08T08:48:17;25.60;85.40
8979;DHT22;4524;51.364;5.448;2023-07-08T08:50:51;25.80;85.10
8979;DHT22;4524;51.364;5.448;2023-07-08T08:53:21;25.90;84.40
8979;DHT22;4524;51.364;5.448;2023-07-08T08:55:55;26.00;90.40
8979;DHT22;4524;51.364;5.448;2023-07-08T08:58:33;26.10;84.10
8979;DHT22;4524;51.364;5.448;2023-07-08T09:01:07;26.20;83.60
8979;DHT22;4524;51.364;5.448;2023-07-08T09:03:43;26.20;83.90
8979;DHT22;4524;51.364;5.448;2023-07-08T09:06:16;26.30;83.30
8979;DHT22;4524;51.364;5.448;2023-07-08T09:08:45;26.40;83.30
8979;DHT22;4524;51.364;5.448;2023-07-08T09:11:42;26.50;83.00
8979;DHT22;4524;51.364;5.448;2023-07-08T09:14:20;26.60;83.10
8979;DHT22;4524;51.364;5.448;2023-07-08T09:16:58;26.70;82.40
8979;DHT22;4524;51.364;5.448;2023-07-08T09:19:56;26.70;81.40
8979;DHT22;4524;51.364;5.448;2023-07-08T09:22:32;26.80;81.70
8979;DHT22;4524;51.364;5.448;2023-07-08T09:25:08;27.00;81.00
8979;DHT22;4524;51.364;5.448;2023-07-08T09:27:40;27.00;80.60
8979;DHT22;4524;51.364;5.448;2023-07-08T09:30:27;27.00;80.10
8979;DHT22;4524;51.364;5.448;2023-07-08T09:32:58;27.40;80.10
8979;DHT22;4524;51.364;5.448;2023-07-08T09:35:41;27.40;79.30
8979;DHT22;4524;51.364;5.448;2023-07-08T09:38:15;27.50;78.60
8979;DHT22;4524;51.364;5.448;2023-07-08T09:40:46;27.60;78.10
8979;DHT22;4524;51.364;5.448;2023-07-08T09:43:23;27.70;77.70
8979;DHT22;4524;51.364;5.448;2023-07-08T09:45:52;27.80;77.40
8979;DHT22;4524;51.364;5.448;2023-07-08T09:48:26;27.90;76.60
8979;DHT22;4524;51.364;5.448;2023-07-08T09:50:57;28.10;76.90
8979;DHT22;4524;51.364;5.448;2023-07-08T09:53:26;28.10;76.00
8979;DHT22;4524;51.364;5.448;2023-07-08T09:55:58;28.20;75.10
8979;DHT22;4524;51.364;5.448;2023-07-08T09:58:30;28.50;74.90
8979;DHT22;4524;51.364;5.448;2023-07-08T10:01:05;28.60;74.40
8979;DHT22;4524;51.364;5.448;2023-07-08T10:03:37;28.80;73.70
8979;DHT22;4524;51.364;5.448;2023-07-08T10:06:21;28.80;74.30
8979;DHT22;4524;51.364;5.448;2023-07-08T10:08:50;29.00;78.10
8979;DHT22;4524;51.364;5.448;2023-07-08T10:11:28;29.10;72.40
8979;DHT22;4524;51.364;5.448;2023-07-08T10:14:01;29.20;72.10
8979;DHT22;4524;51.364;5.448;2023-07-08T10:16:41;29.10;72.10
8979;DHT22;4524;51.364;5.448;2023-07-08T10:19:13;29.20;72.10
8979;DHT22;4524;51.364;5.448;2023-07-08T10:21:48;29.30;72.20
8979;DHT22;4524;51.364;5.448;2023-07-08T10:24:30;29.70;71.50
8979;DHT22;4524;51.364;5.448;2023-07-08T10:27:07;29.70;70.40
8979;DHT22;4524;51.364;5.448;2023-07-08T10:29:45;29.70;70.90
8979;DHT22;4524;51.364;5.448;2023-07-08T10:32:24;29.60;71.60
8979;DHT22;4524;51.364;5.448;2023-07-08T10:35:02;30.10;70.80
8979;DHT22;4524;51.364;5.448;2023-07-08T10:37:43;30.40;69.20
8979;DHT22;4524;51.364;5.448;2023-07-08T10:40:24;30.30;68.00
8979;DHT22;4524;51.364;5.448;2023-07-08T10:43:03;30.30;67.70
8979;DHT22;4524;51.364;5.448;2023-07-08T10:45:40;30.90;67.70
8979;DHT22;4524;51.364;5.448;2023-07-08T10:48:22;31.10;67.20
8979;DHT22;4524;51.364;5.448;2023-07-08T10:51:00;31.30;67.50
8979;DHT22;4524;51.364;5.448;2023-07-08T10:54:01;31.40;66.00
8979;DHT22;4524;51.364;5.448;2023-07-08T10:56:40;31.60;65.20
8979;DHT22;4524;51.364;5.448;2023-07-08T10:59:23;31.50;65.00
8979;DHT22;4524;51.364;5.448;2023-07-08T11:02:02;31.50;65.10
8979;DHT22;4524;51.364;5.448;2023-07-08T11:04:46;31.50;64.70
8979;DHT22;4524;51.364;5.448;2023-07-08T11:07:28;31.80;63.90
8979;DHT22;4524;51.364;5.448;2023-07-08T11:10:00;31.50;62.80
8979;DHT22;4524;51.364;5.448;2023-07-08T11:12:33;31.60;63.10
8979;DHT22;4524;51.364;5.448;2023-07-08T11:15:07;31.90;63.50
8979;DHT22;4524;51.364;5.448;2023-07-08T11:17:51;32.00;61.70
8979;DHT22;4524;51.364;5.448;2023-07-08T11:20:25;32.20;61.80
8979;DHT22;4524;51.364;5.448;2023-07-08T11:22:59;32.10;61.90
8979;DHT22;4524;51.364;5.448;2023-07-08T11:25:31;32.20;61.20
8979;DHT22;4524;51.364;5.448;2023-07-08T11:28:03;32.10;60.40
8979;DHT22;4524;51.364;5.448;2023-07-08T11:30:33;32.00;61.00
8979;DHT22;4524;51.364;5.448;2023-07-08T11:33:10;32.20;61.00
8979;DHT22;4524;51.364;5.448;2023-07-08T11:35:42;32.40;60.20
8979;DHT22;4524;51.364;5.448;2023-07-08T11:38:13;32.50;59.90
8979;DHT22;4524;51.364;5.448;2023-07-08T11:41:02;32.50;59.30
8979;DHT22;4524;51.364;5.448;2023-07-08T11:43:36;32.80;59.30
8979;DHT22;4524;51.364;5.448;2023-07-08T11:46:06;32.90;58.50
8979;DHT22;4524;51.364;5.448;2023-07-08T11:48:39;33.00;57.70
8979;DHT22;4524;51.364;5.448;2023-07-08T11:51:10;32.70;64.70
8979;DHT22;4524;51.364;5.448;2023-07-08T11:53:49;32.70;58.70
8979;DHT22;4524;51.364;5.448;2023-07-08T11:56:23;32.70;58.60
8979;DHT22;4524;51.364;5.448;2023-07-08T11:59:08;32.90;58.20
8979;DHT22;4524;51.364;5.448;2023-07-08T12:01:45;33.00;57.20
8979;DHT22;4524;51.364;5.448;2023-07-08T12:04:28;33.00;57.90
8979;DHT22;4524;51.364;5.448;2023-07-08T12:07:11;33.00;58.30
8979;DHT22;4524;51.364;5.448;2023-07-08T12:09:46;32.90;58.90
8979;DHT22;4524;51.364;5.448;2023-07-08T12:12:23;32.80;58.70
8979;DHT22;4524;51.364;5.448;2023-07-08T12:14:55;32.70;64.50
8979;DHT22;4524;51.364;5.448;2023-07-08T12:17:26;32.90;57.70
8979;DHT22;4524;51.364;5.448;2023-07-08T12:19:56;32.70;57.20
8979;DHT22;4524;51.364;5.448;2023-07-08T12:22:25;32.50;56.90
8979;DHT22;4524;51.364;5.448;2023-07-08T12:25:14;32.50;63.20
8979;DHT22;4524;51.364;5.448;2023-07-08T12:27:45;32.40;57.50
8979;DHT22;4524;51.364;5.448;2023-07-08T12:30:15;32.40;57.10
8979;DHT22;4524;51.364;5.448;2023-07-08T12:32:44;32.50;57.20
8979;DHT22;4524;51.364;5.448;2023-07-08T12:35:21;32.70;56.20
8979;DHT22;4524;51.364;5.448;2023-07-08T12:37:51;32.70;56.90
8979;DHT22;4524;51.364;5.448;2023-07-08T12:40:21;32.80;56.20
8979;DHT22;4524;51.364;5.448;2023-07-08T12:42:51;33.00;54.80
8979;DHT22;4524;51.364;5.448;2023-07-08T12:45:21;33.00;54.50
8979;DHT22;4524;51.364;5.448;2023-07-08T12:47:50;33.20;54.20
8979;DHT22;4524;51.364;5.448;2023-07-08T12:50:21;33.40;53.60
8979;DHT22;4524;51.364;5.448;2023-07-08T12:52:49;33.30;52.90
8979;DHT22;4524;51.364;5.448;2023-07-08T12:55:18;33.40;52.00
8979;DHT22;4524;51.364;5.448;2023-07-08T12:57:49;33.50;50.80
8979;DHT22;4524;51.364;5.448;2023-07-08T13:00:24;33.40;57.00
8979;DHT22;4524;51.364;5.448;2023-07-08T13:02:56;33.40;51.20
8979;DHT22;4524;51.364;5.448;2023-07-08T13:05:26;33.40;50.80
8979;DHT22;4524;51.364;5.448;2023-07-08T13:07:56;33.40;51.30
8979;DHT22;4524;51.364;5.448;2023-07-08T13:10:26;33.40;51.10
8979;DHT22;4524;51.364;5.448;2023-07-08T13:12:58;33.30;50.90
8979;DHT22;4524;51.364;5.448;2023-07-08T13:15:32;33.30;50.80
8979;DHT22;4524;51.364;5.448;2023-07-08T13:18:02;33.30;50.70
8979;DHT22;4524;51.364;5.448;2023-07-08T13:20:30;33.30;50.80
8979;DHT22;4524;51.364;5.448;2023-07-08T13:23:01;33.30;51.20
8979;DHT22;4524;51.364;5.448;2023-07-08T13:25:31;33.40;50.80
8979;DHT22;4524;51.364;5.448;2023-07-08T13:28:02;33.40;50.70
8979;DHT22;4524;51.364;5.448;2023-07-08T13:30:32;33.30;50.40
8979;DHT22;4524;51.364;5.448;2023-07-08T13:33:00;33.30;50.60
8979;DHT22;4524;51.364;5.448;2023-07-08T13:35:36;33.40;51.00
8979;DHT22;4524;51.364;5.448;2023-07-08T13:38:04;33.30;49.40
8979;DHT22;4524;51.364;5.448;2023-07-08T13:40:32;33.30;49.60
8979;DHT22;4524;51.364;5.448;2023-07-08T13:43:01;33.20;50.30
8979;DHT22;4524;51.364;5.448;2023-07-08T13:45:33;33.20;49.70
8979;DHT22;4524;51.364;5.448;2023-07-08T13:48:11;33.20;50.40
8979;DHT22;4524;51.364;5.448;2023-07-08T13:50:45;33.40;50.20
8979;DHT22;4524;51.364;5.448;2023-07-08T13:53:19;33.30;49.30
8979;DHT22;4524;51.364;5.448;2023-07-08T13:55:48;33.40;49.30
8979;DHT22;4524;51.364;5.448;2023-07-08T13:58:17;33.30;55.00
8979;DHT22;4524;51.364;5.448;2023-07-08T14:00:47;33.30;48.90
8979;DHT22;4524;51.364;5.448;2023-07-08T14:03:17;33.20;48.30
8979;DHT22;4524;51.364;5.448;2023-07-08T14:05:46;33.20;48.50
8979;DHT22;4524;51.364;5.448;2023-07-08T14:08:16;33.30;54.30
8979;DHT22;4524;51.364;5.448;2023-07-08T14:11:05;33.20;48.70
8979;DHT22;4524;51.364;5.448;2023-07-08T14:13:33;33.20;48.60
8979;DHT22;4524;51.364;5.448;2023-07-08T14:16:05;33.10;48.90
8979;DHT22;4524;51.364;5.448;2023-07-08T14:18:37;33.00;49.50
8979;DHT22;4524;51.364;5.448;2023-07-08T14:21:06;32.90;49.80
8979;DHT22;4524;51.364;5.448;2023-07-08T14:23:36;32.90;49.70
8979;DHT22;4524;51.364;5.448;2023-07-08T14:26:24;32.90;50.50
8979;DHT22;4524;51.364;5.448;2023-07-08T14:28:52;32.90;50.50
8979;DHT22;4524;51.364;5.448;2023-07-08T14:31:24;32.90;49.90
8979;DHT22;4524;51.364;5.448;2023-07-08T14:33:59;32.90;50.70
8979;DHT22;4524;51.364;5.448;2023-07-08T14:36:28;32.90;50.50
8979;DHT22;4524;51.364;5.448;2023-07-08T14:38:56;32.90;56.50
8979;DHT22;4524;51.364;5.448;2023-07-08T14:41:25;33.00;50.80
8979;DHT22;4524;51.364;5.448;2023-07-08T14:43:54;33.10;50.70
8979;DHT22;4524;51.364;5.448;2023-07-08T14:46:24;33.10;51.00
8979;DHT22;4524;51.364;5.448;2023-07-08T14:48:52;33.10;50.40
8979;DHT22;4524;51.364;5.448;2023-07-08T14:51:20;33.10;50.80
8979;DHT22;4524;51.364;5.448;2023-07-08T14:53:48;33.10;50.70
8979;DHT22;4524;51.364;5.448;2023-07-08T14:56:16;33.00;50.70
8979;DHT22;4524;51.364;5.448;2023-07-08T14:58:46;33.00;50.50
8979;DHT22;4524;51.364;5.448;2023-07-08T15:01:18;33.00;51.30
8979;DHT22;4524;51.364;5.448;2023-07-08T15:03:48;33.00;51.50
8979;DHT22;4524;51.364;5.448;2023-07-08T15:06:16;33.00;50.90
8979;DHT22;4524;51.364;5.448;2023-07-08T15:08:44;32.90;51.50
8979;DHT22;4524;51.364;5.448;2023-07-08T15:11:12;32.80;51.90
8979;DHT22;4524;51.364;5.448;2023-07-08T15:14:00;32.60;52.30
8979;DHT22;4524;51.364;5.448;2023-07-08T15:16:47;32.50;52.60
8979;DHT22;4524;51.364;5.448;2023-07-08T15:19:18;32.50;52.60
8979;DHT22;4524;51.364;5.448;2023-07-08T15:21:47;32.40;52.80
8979;DHT22;4524;51.364;5.448;2023-07-08T15:24:15;32.40;52.80
8979;DHT22;4524;51.364;5.448;2023-07-08T15:26:45;32.30;53.00
8979;DHT22;4524;51.364;5.448;2023-07-08T15:29:16;32.30;53.20
8979;DHT22;4524;51.364;5.448;2023-07-08T15:31:45;32.20;53.40
8979;DHT22;4524;51.364;5.448;2023-07-08T15:34:14;32.10;55.50
8979;DHT22;4524;51.364;5.448;2023-07-08T15:36:44;32.10;56.20
8979;DHT22;4524;51.364;5.448;2023-07-08T15:39:13;32.10;61.20
8979;DHT22;4524;51.364;5.448;2023-07-08T15:41:42;32.10;54.90
8979;DHT22;4524;51.364;5.448;2023-07-08T15:44:12;32.10;57.00
8979;DHT22;4524;51.364;5.448;2023-07-08T15:46:41;32.00;55.40
8979;DHT22;4524;51.364;5.448;2023-07-08T15:49:15;32.00;55.70
8979;DHT22;4524;51.364;5.448;2023-07-08T15:51:45;32.00;56.70
8979;DHT22;4524;51.364;5.448;2023-07-08T15:54:17;31.90;56.90
8979;DHT22;4524;51.364;5.448;2023-07-08T15:56:46;31.90;56.80
8979;DHT22;4524;51.364;5.448;2023-07-08T15:59:17;31.90;57.00
8979;DHT22;4524;51.364;5.448;2023-07-08T16:01:48;31.90;56.90
8979;DHT22;4524;51.364;5.448;2023-07-08T16:04:22;31.90;57.30
8979;DHT22;4524;51.364;5.448;2023-07-08T16:06:53;31.90;57.80
8979;DHT22;4524;51.364;5.448;2023-07-08T16:09:21;31.90;58.50
8979;DHT22;4524;51.364;5.448;2023-07-08T16:11:49;31.70;58.40
8979;DHT22;4524;51.364;5.448;2023-07-08T16:14:18;31.70;58.50
8979;DHT22;4524;51.364;5.448;2023-07-08T16:16:46;31.70;64.90
8979;DHT22;4524;51.364;5.448;2023-07-08T16:19:34;31.50;59.30
8979;DHT22;4524;51.364;5.448;2023-07-08T16:22:04;31.50;60.00
8979;DHT22;4524;51.364;5.448;2023-07-08T16:24:33;31.40;59.00
8979;DHT22;4524;51.364;5.448;2023-07-08T16:27:02;31.30;59.20
8979;DHT22;4524;51.364;5.448;2023-07-08T16:29:30;31.20;60.20
8979;DHT22;4524;51.364;5.448;2023-07-08T16:31:59;31.20;57.90